createdAt,value
2017-07-30T00:00:58.921Z,69.90
2017-07-30T00:03:26.521Z,70.10
2017-07-30T00:05:54.178Z,70.10
2017-07-30T00:08:21.809Z,70.20
2017-07-30T00:10:49.420Z,70.30
2017-07-30T00:13:17.317Z,70.40
2017-07-30T00:15:44.874Z,70.50
2017-07-30T00:18:12.426Z,70.60
2017-07-30T00:20:39.976Z,70.60
2017-07-30T00:23:07.541Z,70.80
2017-07-30T00:25:35.392Z,70.90
2017-07-30T00:28:02.960Z,71.00
2017-07-30T00:30:30.513Z,71.10
2017-07-30T00:32:58.092Z,71.10
2017-07-30T00:35:25.643Z,71.10
2017-07-30T00:37:53.507Z,71.20
2017-07-30T00:40:21.042Z,71.40
2017-07-30T00:42:48.567Z,71.50
2017-07-30T00:45:16.130Z,71.40
2017-07-30T00:47:44.432Z,71.60
2017-07-30T00:50:12.433Z,71.60
2017-07-30T00:52:39.970Z,71.70
2017-07-30T00:55:07.505Z,71.70
2017-07-30T00:57:35.082Z,71.80
2017-07-30T01:00:02.623Z,71.90
2017-07-30T01:02:30.461Z,72.00
2017-07-30T01:04:58.012Z,72.20
2017-07-30T01:07:25.545Z,72.10
2017-07-30T01:09:53.158Z,72.20
2017-07-30T01:12:20.685Z,72.20
2017-07-30T01:14:48.557Z,73.00
2017-07-30T01:17:16.096Z,72.40
2017-07-30T01:19:43.654Z,72.30
2017-07-30T01:22:11.214Z,72.50
2017-07-30T01:24:38.745Z,72.50
2017-07-30T01:27:06.601Z,72.50
2017-07-30T01:29:34.990Z,72.60
2017-07-30T01:32:02.537Z,72.70
2017-07-30T01:34:30.118Z,72.60
2017-07-30T01:36:57.638Z,72.60
2017-07-30T01:39:25.470Z,72.60
2017-07-30T01:41:53.005Z,72.60
2017-07-30T01:44:20.543Z,72.70
2017-07-30T01:46:48.144Z,72.80
2017-07-30T01:49:15.702Z,72.80
2017-07-30T01:51:43.552Z,72.90
2017-07-30T01:54:11.087Z,72.90
2017-07-30T01:56:38.604Z,72.90
2017-07-30T01:59:06.180Z,73.00
2017-07-30T02:01:33.740Z,73.10
2017-07-30T02:04:01.557Z,73.10
2017-07-30T02:06:29.084Z,73.10
2017-07-30T02:08:56.605Z,73.20
2017-07-30T02:11:24.167Z,73.10
2017-07-30T02:13:51.682Z,73.10
2017-07-30T02:16:19.525Z,73.10
2017-07-30T02:18:47.181Z,73.10
2017-07-30T02:21:14.752Z,73.10
2017-07-30T02:23:42.376Z,73.10
2017-07-30T02:26:10.822Z,73.20
2017-07-30T02:28:39.644Z,73.30
2017-07-30T02:31:07.265Z,73.30
2017-07-30T02:33:34.857Z,73.40
2017-07-30T02:36:02.526Z,73.40
2017-07-30T02:38:30.040Z,73.40
2017-07-30T02:40:58.624Z,74.20
2017-07-30T02:43:26.929Z,73.80
2017-07-30T02:45:54.465Z,73.40
2017-07-30T02:48:22.025Z,73.40
2017-07-30T02:50:49.722Z,73.60
2017-07-30T02:53:17.624Z,73.70
2017-07-30T02:55:45.158Z,73.80
2017-07-30T02:58:12.722Z,73.80
2017-07-30T03:00:40.273Z,73.80
2017-07-30T03:03:07.844Z,73.90
2017-07-30T03:05:35.727Z,73.90
2017-07-30T03:08:03.256Z,74.00
2017-07-30T03:10:30.777Z,74.00
2017-07-30T03:12:58.369Z,74.00
2017-07-30T03:15:25.927Z,74.00
2017-07-30T03:17:54.555Z,74.10
2017-07-30T03:20:22.120Z,74.10
2017-07-30T03:22:49.663Z,74.20
2017-07-30T03:25:17.250Z,74.30
2017-07-30T03:27:44.783Z,74.30
2017-07-30T03:30:12.657Z,74.40
2017-07-30T03:32:40.190Z,74.40
2017-07-30T03:35:07.746Z,74.50
2017-07-30T03:37:35.293Z,74.50
2017-07-30T03:40:03.609Z,74.50
2017-07-30T03:42:31.579Z,74.60
2017-07-30T03:44:59.107Z,74.60
2017-07-30T03:47:26.673Z,74.70
2017-07-30T03:49:54.233Z,74.70
2017-07-30T03:52:21.787Z,74.80
2017-07-30T03:54:50.354Z,74.80
2017-07-30T03:57:17.900Z,74.90
2017-07-30T03:59:45.425Z,75.00
2017-07-30T04:02:13.091Z,75.00
2017-07-30T04:04:40.654Z,75.00
2017-07-30T04:07:08.527Z,74.90
2017-07-30T04:09:36.096Z,74.90
2017-07-30T04:12:03.625Z,74.90
2017-07-30T04:14:31.184Z,75.00
2017-07-30T04:16:58.719Z,75.00
2017-07-30T04:19:26.643Z,75.10
2017-07-30T04:21:54.164Z,75.10
2017-07-30T04:24:21.693Z,75.10
2017-07-30T04:26:50.054Z,75.50
2017-07-30T04:29:17.588Z,75.40
2017-07-30T04:31:45.479Z,75.30
2017-07-30T04:34:13.038Z,75.40
2017-07-30T04:36:40.553Z,75.40
2017-07-30T04:39:08.154Z,75.40
2017-07-30T04:41:35.726Z,75.50
2017-07-30T04:44:03.810Z,75.50
2017-07-30T04:46:31.383Z,75.40
2017-07-30T04:48:58.959Z,75.40
2017-07-30T04:51:26.579Z,75.40
2017-07-30T04:53:54.122Z,75.30
2017-07-30T04:56:22.097Z,75.20
2017-07-30T04:58:49.627Z,75.20
2017-07-30T05:01:17.183Z,75.00
2017-07-30T05:03:44.780Z,75.00
2017-07-30T05:06:12.317Z,74.80
2017-07-30T05:08:40.208Z,74.70
2017-07-30T05:11:07.757Z,74.60
2017-07-30T05:13:35.306Z,74.50
2017-07-30T05:16:02.872Z,74.40
2017-07-30T05:18:30.447Z,74.30
2017-07-30T05:20:58.318Z,74.10
2017-07-30T05:23:25.855Z,73.90
2017-07-30T05:25:53.401Z,73.60
2017-07-30T05:28:20.975Z,73.70
2017-07-30T05:30:48.514Z,73.50
2017-07-30T05:33:16.529Z,73.30
2017-07-30T05:35:44.037Z,73.10
2017-07-30T05:38:11.593Z,72.90
2017-07-30T05:40:39.936Z,72.30
2017-07-30T05:43:08.311Z,72.00
2017-07-30T05:45:36.153Z,72.00
2017-07-30T05:48:03.691Z,71.70
2017-07-30T05:50:31.229Z,71.40
2017-07-30T05:52:59.574Z,71.80
2017-07-30T05:55:27.089Z,71.00
2017-07-30T05:57:54.928Z,70.70
2017-07-30T06:00:22.458Z,70.40
2017-07-30T06:02:51.034Z,70.20
2017-07-30T06:05:18.589Z,69.90
2017-07-30T06:07:46.164Z,69.70
2017-07-30T06:10:14.034Z,69.40
2017-07-30T06:12:41.602Z,69.30
2017-07-30T06:15:09.200Z,69.00
2017-07-30T06:17:36.819Z,68.80
2017-07-30T06:20:04.396Z,68.50
2017-07-30T06:22:33.097Z,68.00
2017-07-30T06:25:00.670Z,68.10
2017-07-30T06:27:28.268Z,67.80
2017-07-30T06:29:55.846Z,67.60
2017-07-30T06:32:23.545Z,67.20
2017-07-30T06:34:52.681Z,66.70
2017-07-30T06:37:20.227Z,66.70
2017-07-30T06:39:48.391Z,66.20
2017-07-30T06:42:16.727Z,65.60
2017-07-30T06:44:44.367Z,65.50
2017-07-30T06:47:12.267Z,65.30
2017-07-30T06:49:39.808Z,64.80
2017-07-30T06:52:07.337Z,64.20
2017-07-30T06:54:34.921Z,63.90
2017-07-30T06:57:02.467Z,63.50
2017-07-30T06:59:30.372Z,63.00
2017-07-30T07:01:57.891Z,62.80
2017-07-30T07:04:25.445Z,62.30
2017-07-30T07:06:53.021Z,61.80
2017-07-30T07:09:20.589Z,61.20
2017-07-30T07:11:48.466Z,61.10
2017-07-30T07:14:16.010Z,60.90
2017-07-30T07:16:43.540Z,60.80
2017-07-30T07:19:11.093Z,60.40
2017-07-30T07:21:38.609Z,60.00
2017-07-30T07:24:06.450Z,59.50
2017-07-30T07:26:34.004Z,59.10
2017-07-30T07:29:01.542Z,58.80
2017-07-30T07:31:29.136Z,58.70
2017-07-30T07:33:56.669Z,58.60
2017-07-30T07:36:24.543Z,58.50
2017-07-30T07:38:52.854Z,57.90
2017-07-30T07:41:20.420Z,57.90
2017-07-30T07:43:48.033Z,57.90
2017-07-30T07:46:15.575Z,57.60
2017-07-30T07:48:43.507Z,57.30
2017-07-30T07:51:11.085Z,57.30
2017-07-30T07:53:38.622Z,57.10
2017-07-30T07:56:06.194Z,56.90
2017-07-30T07:58:33.737Z,56.60
2017-07-30T08:01:01.594Z,56.40
2017-07-30T08:03:29.120Z,56.20
2017-07-30T08:05:56.653Z,56.20
2017-07-30T08:08:24.248Z,55.80
2017-07-30T08:10:52.568Z,55.20
2017-07-30T08:13:20.416Z,55.20
2017-07-30T08:15:47.944Z,54.80
2017-07-30T08:18:15.469Z,54.40
2017-07-30T08:20:43.051Z,54.00
2017-07-30T08:23:10.587Z,53.80
2017-07-30T08:25:38.502Z,53.40
2017-07-30T08:28:06.055Z,53.00
2017-07-30T08:30:33.623Z,52.20
2017-07-30T08:33:02.037Z,51.40
2017-07-30T08:35:29.640Z,51.30
2017-07-30T08:37:57.639Z,50.40
2017-07-30T08:40:25.242Z,50.00
2017-07-30T08:42:52.796Z,50.00
2017-07-30T08:45:20.360Z,49.20
2017-07-30T08:47:47.928Z,48.90
2017-07-30T08:50:15.833Z,49.70
2017-07-30T08:52:43.407Z,48.90
2017-07-30T08:55:10.944Z,48.80
2017-07-30T08:57:38.486Z,48.50
2017-07-30T09:00:06.057Z,47.90
2017-07-30T09:02:33.900Z,47.60
2017-07-30T09:05:01.438Z,47.20
2017-07-30T09:07:28.999Z,47.10
2017-07-30T09:09:56.599Z,46.70
2017-07-30T09:12:24.135Z,46.40
2017-07-30T09:14:52.124Z,46.80
2017-07-30T09:17:19.652Z,46.50
2017-07-30T09:19:48.062Z,46.20
2017-07-30T09:22:15.642Z,46.10
2017-07-30T09:24:43.197Z,45.70
2017-07-30T09:27:11.017Z,45.60
2017-07-30T09:29:38.620Z,45.40
2017-07-30T09:32:06.224Z,45.50
2017-07-30T09:34:33.813Z,45.50
2017-07-30T09:37:01.421Z,45.60
2017-07-30T09:39:29.369Z,45.60
2017-07-30T09:41:56.935Z,45.60
2017-07-30T09:44:24.448Z,45.10
2017-07-30T09:46:51.992Z,44.60
2017-07-30T09:49:20.310Z,44.00
2017-07-30T09:51:48.198Z,44.00
2017-07-30T09:54:15.723Z,43.90
2017-07-30T09:56:43.332Z,43.80
2017-07-30T09:59:10.874Z,44.00
2017-07-30T10:01:38.447Z,44.10
2017-07-30T10:04:06.423Z,44.00
2017-07-30T10:06:34.757Z,44.10
2017-07-30T10:09:02.511Z,44.10
2017-07-30T10:11:30.077Z,43.90
2017-07-30T10:13:57.679Z,43.60
2017-07-30T10:16:25.554Z,43.80
2017-07-30T10:18:53.112Z,43.60
2017-07-30T10:21:20.667Z,44.20
2017-07-30T10:23:48.258Z,43.30
2017-07-30T10:26:15.774Z,43.20
2017-07-30T10:28:43.703Z,42.80
2017-07-30T10:31:11.239Z,42.30
2017-07-30T10:33:38.813Z,42.10
2017-07-30T10:36:06.375Z,42.00
2017-07-30T10:38:34.826Z,42.30
2017-07-30T10:41:03.442Z,42.00
2017-07-30T10:43:31.760Z,42.30
2017-07-30T10:45:59.577Z,41.80
2017-07-30T10:48:27.145Z,42.10
2017-07-30T10:50:54.680Z,42.30
2017-07-30T10:53:22.538Z,42.80
2017-07-30T10:55:50.102Z,42.40
2017-07-30T10:58:17.660Z,42.30
2017-07-30T11:00:45.269Z,41.80
2017-07-30T11:03:12.851Z,41.70
2017-07-30T11:05:40.853Z,41.50
2017-07-30T11:08:08.412Z,41.50
2017-07-30T11:10:35.930Z,41.20
2017-07-30T11:13:03.507Z,41.30
2017-07-30T11:15:31.076Z,41.30
2017-07-30T11:17:59.004Z,41.30
2017-07-30T11:20:26.566Z,41.00
2017-07-30T11:22:54.927Z,40.40
2017-07-30T11:25:23.267Z,40.10
2017-07-30T11:27:50.796Z,40.00
2017-07-30T11:30:18.713Z,39.90
2017-07-30T11:32:46.257Z,39.80
2017-07-30T11:35:14.744Z,39.80
2017-07-30T11:37:42.297Z,39.80
2017-07-30T11:40:09.847Z,40.00
2017-07-30T11:42:37.789Z,40.10
2017-07-30T11:45:05.317Z,39.90
2017-07-30T11:47:32.866Z,39.60
2017-07-30T11:50:00.443Z,39.70
2017-07-30T11:52:27.978Z,39.70
2017-07-30T11:54:55.855Z,39.80
2017-07-30T11:57:23.454Z,39.50
2017-07-30T11:59:50.999Z,39.60
2017-07-30T12:02:18.557Z,39.60
2017-07-30T12:04:46.115Z,39.80
2017-07-30T12:07:13.999Z,40.20
2017-07-30T12:09:42.287Z,39.70
2017-07-30T12:12:10.594Z,39.90
2017-07-30T12:14:38.188Z,39.90
2017-07-30T12:17:05.724Z,40.40
2017-07-30T12:19:33.637Z,40.50
2017-07-30T12:22:01.963Z,40.80
2017-07-30T12:24:29.537Z,40.10
2017-07-30T12:26:57.104Z,39.80
2017-07-30T12:29:24.629Z,40.00
2017-07-30T12:31:52.478Z,40.00
2017-07-30T12:34:20.931Z,40.00
2017-07-30T12:36:48.461Z,39.80
2017-07-30T12:39:16.068Z,39.80
2017-07-30T12:41:44.402Z,39.70
2017-07-30T12:44:12.256Z,39.70
2017-07-30T12:46:39.802Z,39.50
2017-07-30T12:49:07.372Z,39.10
2017-07-30T12:51:34.946Z,38.00
2017-07-30T12:54:02.500Z,36.50
2017-07-30T12:56:30.377Z,35.50
2017-07-30T12:58:57.902Z,34.60
2017-07-30T13:01:25.442Z,34.60
2017-07-30T13:03:52.984Z,34.00
2017-07-30T13:06:20.500Z,34.30
2017-07-30T13:08:48.316Z,34.10
2017-07-30T13:11:16.640Z,32.90
2017-07-30T13:13:44.177Z,32.80
2017-07-30T13:16:12.485Z,31.90
2017-07-30T13:18:40.221Z,31.80
2017-07-30T13:21:08.864Z,31.60
2017-07-30T13:23:36.420Z,31.60
2017-07-30T13:26:03.964Z,31.30
2017-07-30T13:28:31.539Z,31.10
2017-07-30T13:30:59.109Z,31.40
2017-07-30T13:33:26.978Z,31.60
2017-07-30T13:35:54.523Z,32.30
2017-07-30T13:38:22.083Z,32.80
2017-07-30T13:40:49.657Z,32.70
2017-07-30T13:43:17.176Z,32.70
2017-07-30T13:45:45.003Z,33.10
2017-07-30T13:48:12.549Z,33.60
2017-07-30T13:50:40.099Z,34.30
2017-07-30T13:53:07.686Z,34.20
2017-07-30T13:55:35.193Z,33.10
2017-07-30T13:58:03.240Z,32.20
2017-07-30T14:00:30.807Z,31.50
2017-07-30T14:02:58.337Z,31.50
2017-07-30T14:05:25.909Z,31.00
2017-07-30T14:07:53.485Z,31.20
2017-07-30T14:10:22.111Z,30.50
2017-07-30T14:12:49.655Z,30.40
2017-07-30T14:15:17.182Z,29.60
2017-07-30T14:17:45.526Z,29.20
2017-07-30T14:20:13.051Z,29.10
2017-07-30T14:22:40.871Z,29.10
2017-07-30T14:25:08.454Z,28.90
2017-07-30T14:27:35.984Z,28.90
2017-07-30T14:30:03.913Z,28.40
2017-07-30T14:32:31.466Z,28.20
2017-07-30T14:34:59.369Z,28.30
2017-07-30T14:37:26.910Z,27.90
2017-07-30T14:39:54.432Z,27.70
2017-07-30T14:42:22.763Z,27.80
2017-07-30T14:44:50.333Z,27.80
2017-07-30T14:47:18.185Z,27.80
2017-07-30T14:49:45.737Z,27.60
2017-07-30T14:52:13.256Z,27.10
2017-07-30T14:54:40.808Z,26.90
2017-07-30T14:57:08.455Z,27.00
2017-07-30T14:59:36.316Z,27.10
2017-07-30T15:02:03.910Z,26.40
2017-07-30T15:04:32.199Z,26.60
2017-07-30T15:07:00.534Z,26.10
2017-07-30T15:09:28.080Z,26.10
2017-07-30T15:11:55.949Z,26.50
2017-07-30T15:14:23.504Z,26.70
2017-07-30T15:16:51.033Z,26.90
2017-07-30T15:19:18.612Z,27.10
2017-07-30T15:21:46.184Z,27.40
2017-07-30T15:24:14.017Z,27.60
2017-07-30T15:26:42.332Z,27.80
2017-07-30T15:29:09.870Z,27.80
2017-07-30T15:31:37.438Z,27.70
2017-07-30T15:34:04.968Z,27.60
2017-07-30T15:36:33.583Z,27.00
2017-07-30T15:39:01.121Z,27.00
2017-07-30T15:41:28.637Z,27.10
2017-07-30T15:43:56.244Z,27.10
2017-07-30T15:46:23.790Z,27.30
2017-07-30T15:48:52.408Z,27.10
2017-07-30T15:51:19.959Z,27.10
2017-07-30T15:53:47.526Z,27.30
2017-07-30T15:56:15.118Z,27.60
2017-07-30T15:58:42.731Z,27.50
2017-07-30T16:01:10.621Z,27.40
2017-07-30T16:03:38.173Z,27.40
2017-07-30T16:06:05.729Z,27.50
2017-07-30T16:08:33.316Z,27.80
2017-07-30T16:11:00.852Z,28.10
2017-07-30T16:13:28.774Z,27.90
2017-07-30T16:15:56.318Z,27.90
2017-07-30T16:18:23.869Z,27.90
2017-07-30T16:20:51.527Z,27.70
2017-07-30T16:23:19.087Z,27.80
2017-07-30T16:25:47.109Z,27.80
2017-07-30T16:28:15.431Z,27.60
2017-07-30T16:30:42.956Z,27.50
2017-07-30T16:33:10.548Z,27.70
2017-07-30T16:35:38.096Z,28.10
2017-07-30T16:38:05.988Z,28.20
2017-07-30T16:40:33.566Z,28.30
2017-07-30T16:43:01.136Z,28.60
2017-07-30T16:45:28.692Z,28.90
2017-07-30T16:47:56.211Z,29.20
2017-07-30T16:50:24.125Z,29.70
2017-07-30T16:52:51.670Z,30.00
2017-07-30T16:55:19.232Z,29.90
2017-07-30T16:57:46.834Z,29.90
2017-07-30T17:00:14.385Z,30.00
2017-07-30T17:02:42.441Z,30.50
2017-07-30T17:05:09.995Z,30.70
2017-07-30T17:07:37.551Z,31.10
2017-07-30T17:10:05.138Z,31.40
2017-07-30T17:12:32.691Z,31.90
2017-07-30T17:15:00.543Z,32.30
2017-07-30T17:17:28.092Z,32.80
2017-07-30T17:19:55.618Z,33.10
2017-07-30T17:22:23.225Z,33.50
2017-07-30T17:24:50.777Z,33.50
2017-07-30T17:27:18.648Z,33.80
2017-07-30T17:29:46.170Z,34.10
2017-07-30T17:32:13.721Z,34.30
2017-07-30T17:34:41.317Z,34.50
2017-07-30T17:37:08.845Z,34.70
2017-07-30T17:39:36.698Z,35.00
2017-07-30T17:42:04.318Z,35.30
2017-07-30T17:44:31.905Z,35.60
2017-07-30T17:46:59.513Z,35.90
2017-07-30T17:49:27.046Z,36.20
2017-07-30T17:51:54.977Z,36.50
2017-07-30T17:54:22.548Z,36.80
2017-07-30T17:56:50.077Z,37.00
2017-07-30T17:59:17.655Z,37.30
2017-07-30T18:01:45.249Z,37.50
2017-07-30T18:04:13.865Z,37.90
2017-07-30T18:06:41.413Z,37.90
2017-07-30T18:09:08.942Z,38.00
2017-07-30T18:11:36.493Z,38.90
2017-07-30T18:14:04.048Z,38.40
2017-07-30T18:16:31.913Z,38.60
2017-07-30T18:18:59.442Z,38.70
2017-07-30T18:21:26.967Z,39.10
2017-07-30T18:23:55.311Z,39.40
2017-07-30T18:26:22.838Z,39.50
2017-07-30T18:28:50.690Z,39.60
2017-07-30T18:31:18.254Z,39.70
2017-07-30T18:33:45.816Z,40.00
2017-07-30T18:36:13.395Z,40.20
2017-07-30T18:38:40.973Z,40.20
2017-07-30T18:41:08.842Z,40.40
2017-07-30T18:43:36.440Z,40.50
2017-07-30T18:46:04.751Z,40.40
2017-07-30T18:48:32.353Z,40.30
2017-07-30T18:50:59.913Z,40.40
2017-07-30T18:53:27.770Z,40.70
2017-07-30T18:55:55.315Z,40.90
2017-07-30T18:58:23.668Z,41.00
2017-07-30T19:00:51.305Z,41.00
2017-07-30T19:03:19.615Z,41.80
2017-07-30T19:05:48.198Z,41.10
2017-07-30T19:08:15.801Z,41.60
2017-07-30T19:10:43.378Z,41.40
2017-07-30T19:13:10.958Z,41.60
2017-07-30T19:15:39.289Z,42.40
2017-07-30T19:18:07.150Z,42.50
2017-07-30T19:20:34.790Z,42.30
2017-07-30T19:23:02.336Z,42.40
2017-07-30T19:25:30.716Z,43.00
2017-07-30T19:27:58.261Z,43.00
2017-07-30T19:30:26.135Z,43.30
2017-07-30T19:32:54.497Z,43.10
2017-07-30T19:35:22.041Z,43.20
2017-07-30T19:37:49.679Z,42.90
2017-07-30T19:40:17.291Z,43.10
2017-07-30T19:42:45.246Z,43.50
2017-07-30T19:45:12.836Z,43.70
2017-07-30T19:47:41.178Z,44.40
2017-07-30T19:50:08.781Z,44.40
2017-07-30T19:52:37.266Z,45.20
2017-07-30T19:55:05.131Z,45.20
2017-07-30T19:57:33.469Z,46.00
2017-07-30T20:00:01.007Z,46.00
2017-07-30T20:02:28.597Z,46.30
2017-07-30T20:04:56.948Z,47.00
2017-07-30T20:07:24.848Z,47.10
2017-07-30T20:09:52.417Z,47.30
2017-07-30T20:12:20.033Z,47.70
2017-07-30T20:14:47.631Z,47.90
2017-07-30T20:17:15.231Z,48.20
2017-07-30T20:19:43.197Z,48.50
2017-07-30T20:22:10.822Z,48.80
2017-07-30T20:24:38.444Z,49.00
2017-07-30T20:27:06.125Z,49.30
2017-07-30T20:29:33.660Z,49.70
2017-07-30T20:32:01.589Z,50.00
2017-07-30T20:34:29.133Z,50.30
2017-07-30T20:36:56.703Z,50.70
2017-07-30T20:39:24.280Z,50.70
2017-07-30T20:41:52.622Z,51.50
2017-07-30T20:44:20.479Z,51.50
2017-07-30T20:46:48.090Z,51.90
2017-07-30T20:49:15.635Z,52.20
2017-07-30T20:51:44.211Z,52.50
2017-07-30T20:54:11.772Z,52.80
2017-07-30T20:56:39.645Z,53.10
2017-07-30T20:59:07.972Z,53.40
2017-07-30T21:01:35.528Z,53.80
2017-07-30T21:04:03.112Z,54.10
2017-07-30T21:06:30.662Z,54.30
2017-07-30T21:08:58.543Z,55.30
2017-07-30T21:11:26.142Z,54.90
2017-07-30T21:13:53.707Z,55.30
2017-07-30T21:16:22.111Z,55.90
2017-07-30T21:18:49.661Z,55.80
2017-07-30T21:21:18.259Z,56.20
2017-07-30T21:23:45.793Z,56.30
2017-07-30T21:26:13.358Z,56.60
2017-07-30T21:28:40.926Z,56.70
2017-07-30T21:31:09.245Z,57.00
2017-07-30T21:33:37.076Z,57.10
2017-07-30T21:36:05.418Z,57.30
2017-07-30T21:38:32.971Z,57.50
2017-07-30T21:41:00.605Z,57.40
2017-07-30T21:43:28.136Z,57.70
2017-07-30T21:45:56.783Z,57.90
2017-07-30T21:48:24.329Z,57.90
2017-07-30T21:50:51.885Z,58.10
2017-07-30T21:53:19.483Z,58.30
2017-07-30T21:55:47.020Z,58.30
2017-07-30T21:58:14.887Z,58.40
2017-07-30T22:00:42.436Z,58.60
2017-07-30T22:03:09.998Z,58.70
2017-07-30T22:05:37.579Z,58.90
2017-07-30T22:08:05.105Z,59.00
2017-07-30T22:10:32.963Z,59.10
2017-07-30T22:13:00.515Z,59.30
2017-07-30T22:15:28.059Z,59.40
2017-07-30T22:17:56.409Z,59.70
2017-07-30T22:20:23.994Z,59.70
2017-07-30T22:22:52.629Z,60.00
2017-07-30T22:25:20.190Z,60.00
2017-07-30T22:27:47.815Z,60.30
2017-07-30T22:30:15.620Z,60.60
2017-07-30T22:32:43.164Z,61.00
2017-07-30T22:35:11.029Z,61.30
2017-07-30T22:37:38.571Z,61.30
2017-07-30T22:40:06.887Z,61.70
2017-07-30T22:42:34.512Z,61.70
2017-07-30T22:45:02.053Z,62.00
2017-07-30T22:47:30.653Z,62.10
2017-07-30T22:49:58.950Z,62.30
2017-07-30T22:52:26.483Z,62.40
2017-07-30T22:54:54.044Z,62.40
2017-07-30T22:57:22.336Z,62.60
2017-07-30T22:59:50.185Z,62.60
2017-07-30T23:02:18.470Z,62.60
2017-07-30T23:04:46.007Z,62.70
2017-07-30T23:07:13.564Z,62.60
2017-07-30T23:09:41.098Z,63.30
2017-07-30T23:12:09.008Z,62.60
2017-07-30T23:14:36.567Z,62.60
2017-07-30T23:17:04.887Z,62.80
2017-07-30T23:19:32.454Z,63.00
2017-07-30T23:21:59.989Z,63.10
2017-07-30T23:24:28.619Z,63.20
2017-07-30T23:26:56.155Z,63.30
2017-07-30T23:29:23.675Z,63.40
2017-07-30T23:31:52.027Z,63.70
2017-07-30T23:34:19.556Z,63.80
2017-07-30T23:36:47.557Z,63.80
2017-07-30T23:39:15.070Z,63.90
2017-07-30T23:41:42.617Z,64.00
2017-07-30T23:44:10.226Z,64.20
2017-07-30T23:46:37.757Z,64.30
2017-07-30T23:49:05.659Z,64.30
2017-07-30T23:51:33.222Z,64.30
2017-07-30T23:54:00.770Z,64.30
2017-07-30T23:56:28.334Z,64.60
2017-07-30T23:58:55.913Z,64.60
